Time;durP1;ratioP1;P1;durP2;ratioP2;P2;SDS_P1;SDS_P2;PMS_P1;PMS_P2;Temp;Humidity;BMP_temperature;BMP_pressure;BME280_temperature;BME280_humidity;BME280_pressure;Samples;Min_cycle;Max_cycle;Signal;HPM_P1;HPM_P2
2022/02/20 06:34:39;;;;;;;54.17;31.00;;;;;;;;;;6149459;23;20095;-88
2022/02/20 06:37:05;;;;;;;62.75;33.33;;;;;;;;;;6185649;23;20391;-89
2022/02/20 06:39:32;;;;;;;55.65;30.95;;;;;;;;;;6189211;23;20008;-89
2022/02/20 06:41:58;;;;;;;56.58;31.83;;;;;;;;;;6191850;23;20005;-87
2022/02/20 06:44:23;;;;;;;54.03;30.60;;;;;;;;;;6186433;23;20008;-86
2022/02/20 06:46:49;;;;;;;60.17;32.75;;;;;;;;;;6186094;23;20040;-91
2022/02/20 06:49:14;;;;;;;55.03;32.55;;;;;;;;;;6186798;23;20029;-94
2022/02/20 17:27:38;;;;;;;38.92;21.30;;;;;;;;;;6150182;23;20016;-87
2022/02/20 17:30:06;;;;;;;44.78;23.67;;;;;;;;;;6161504;23;20021;-87
2022/02/20 17:32:32;;;;;;;43.50;25.23;;;;;;;;;;6161069;23;20084;-87
2022/02/20 17:34:58;;;;;;;41.00;23.38;;;;;;;;;;6156344;23;20005;-85
2022/02/20 17:37:28;;;;;;;42.67;23.20;;;;;;;;;;6132130;23;20012;-89
2022/02/20 17:39:57;;;;;;;41.55;24.23;;;;;;;;;;6157727;23;20193;-88
2022/02/20 17:42:23;;;;;;;40.33;21.27;;;;;;;;;;6132334;23;20032;-91
2022/02/20 17:44:49;;;;;;;47.17;25.48;;;;;;;;;;6158056;23;20428;-86
2022/02/20 17:47:15;;;;;;;43.92;24.48;;;;;;;;;;6142983;23;20424;-91
2022/02/20 17:49:41;;;;;;;37.80;21.75;;;;;;;;;;6157971;23;20012;-90
2022/02/20 17:52:08;;;;;;;35.97;21.00;;;;;;;;;;6132065;23;20005;-90
2022/02/20 17:54:34;;;;;;;54.00;32.28;;;;;;;;;;6158163;23;20287;-87
2022/02/20 17:57:00;;;;;;;45.67;26.95;;;;;;;;;;6137745;23;20424;-94
2022/02/20 17:59:25;;;;;;;42.30;23.95;;;;;;;;;;6132807;23;20456;-89
2022/02/20 18:01:51;;;;;;;40.28;22.58;;;;;;;;;;6156261;23;20009;-88
2022/02/20 18:04:17;;;;;;;40.00;23.58;;;;;;;;;;6131305;23;20016;-88
2022/02/20 18:06:45;;;;;;;41.45;23.33;;;;;;;;;;6131617;23;20009;-89
2022/02/20 18:09:11;;;;;;;46.70;26.23;;;;;;;;;;6131497;23;20096;-87
2022/02/20 18:11:37;;;;;;;49.60;25.75;;;;;;;;;;6157370;23;20039;-87
2022/02/20 18:14:05;;;;;;;44.53;24.63;;;;;;;;;;6156346;23;20060;-89
2022/02/20 18:16:31;;;;;;;43.75;23.48;;;;;;;;;;6156221;23;20013;-87
2022/02/20 18:18:57;;;;;;;42.08;23.55;;;;;;;;;;6131251;23;20005;-86
2022/02/20 18:21:27;;;;;;;42.53;23.13;;;;;;;;;;6131105;23;20037;-86
2022/02/20 18:23:54;;;;;;;42.03;24.00;;;;;;;;;;6131083;23;20037;-87
2022/02/20 18:26:20;;;;;;;43.42;24.45;;;;;;;;;;6157565;23;20013;-87
2022/02/20 18:28:46;;;;;;;42.50;24.17;;;;;;;;;;6157195;23;20337;-83
2022/02/20 18:31:13;;;;;;;52.30;29.85;;;;;;;;;;6157214;23;20381;-84
2022/02/20 18:33:40;;;;;;;61.15;34.67;;;;;;;;;;6157528;23;20385;-88
2022/02/20 18:36:06;;;;;;;59.50;32.47;;;;;;;;;;6155794;23;20028;-87
2022/02/20 18:38:31;;;;;;;68.10;40.80;;;;;;;;;;6155707;23;20009;-88
2022/02/20 18:41:01;;;;;;;59.80;34.53;;;;;;;;;;6155562;23;20016;-88
2022/02/20 18:43:29;;;;;;;52.72;31.20;;;;;;;;;;6157383;23;20380;-87
2022/02/20 18:45:54;;;;;;;59.00;31.88;;;;;;;;;;6155818;23;20005;-87
2022/02/20 18:48:20;;;;;;;55.25;30.48;;;;;;;;;;6157220;23;20052;-89
2022/02/20 18:50:46;;;;;;;52.08;30.30;;;;;;;;;;6157371;23;20005;-88
2022/02/20 18:53:12;;;;;;;50.78;28.98;;;;;;;;;;6157033;23;19994;-87
2022/02/20 18:55:38;;;;;;;50.53;28.30;;;;;;;;;;6155491;23;20063;-88
2022/02/20 18:58:04;;;;;;;57.55;28.40;;;;;;;;;;6155748;23;20459;-88
2022/02/20 19:00:31;;;;;;;49.08;26.80;;;;;;;;;;6157367;23;20080;-89
2022/02/20 19:02:58;;;;;;;46.47;24.58;;;;;;;;;;6155492;23;20381;-89
2022/02/20 19:05:24;;;;;;;47.58;26.08;;;;;;;;;;6157006;23;20025;-88
2022/02/20 19:07:49;;;;;;;45.50;25.95;;;;;;;;;;6155531;23;20333;-88
2022/02/20 19:10:14;;;;;;;45.80;28.10;;;;;;;;;;6157122;23;20002;-88
2022/02/20 19:12:40;;;;;;;53.22;29.30;;;;;;;;;;6157294;23;19998;-89
2022/02/20 19:15:07;;;;;;;56.55;31.45;;;;;;;;;;6155788;23;20013;-87
2022/02/20 19:17:32;;;;;;;51.40;28.60;;;;;;;;;;6155397;23;20021;-87
2022/02/20 19:19:58;;;;;;;57.83;29.60;;;;;;;;;;6157334;23;20056;-89
2022/02/20 19:22:24;;;;;;;64.03;33.22;;;;;;;;;;6155837;23;20085;-87
2022/02/20 19:24:49;;;;;;;54.03;29.25;;;;;;;;;;6154961;23;20010;-89
2022/02/20 19:27:15;;;;;;;50.95;27.23;;;;;;;;;;6157390;23;20014;-89
2022/02/20 19:29:41;;;;;;;49.85;27.17;;;;;;;;;;6181393;23;20014;-88
2022/02/20 19:32:06;;;;;;;49.47;27.10;;;;;;;;;;6157099;23;20081;-87
2022/02/20 19:34:32;;;;;;;55.17;33.15;;;;;;;;;;6157641;23;20012;-87
2022/02/20 19:36:58;;;;;;;56.28;32.50;;;;;;;;;;6155967;23;20005;-87
2022/02/20 19:39:25;;;;;;;53.58;30.50;;;;;;;;;;6180779;23;20093;-88
2022/02/20 19:41:52;;;;;;;54.35;29.08;;;;;;;;;;6157220;23;20373;-90
2022/02/20 19:44:17;;;;;;;56.33;31.17;;;;;;;;;;6156169;23;20009;-88
2022/02/20 19:46:43;;;;;;;55.40;28.77;;;;;;;;;;6155679;23;20033;-86
2022/02/20 19:49:09;;;;;;;54.60;30.08;;;;;;;;;;6158560;23;20540;-89
2022/02/20 19:51:35;;;;;;;52.22;27.77;;;;;;;;;;6156793;23;20011;-90
2022/02/20 19:54:04;;;;;;;58.78;31.27;;;;;;;;;;6158054;23;20032;-93
2022/02/20 19:56:30;;;;;;;50.95;28.52;;;;;;;;;;6180996;23;20084;-88
2022/02/20 19:58:56;;;;;;;56.90;30.65;;;;;;;;;;6158275;23;19997;-90
2022/02/20 20:01:24;;;;;;;75.05;44.20;;;;;;;;;;6157775;23;20009;-89
2022/02/20 20:03:50;;;;;;;56.05;29.08;;;;;;;;;;6156316;23;20104;-92
2022/02/20 20:06:16;;;;;;;156.05;72.78;;;;;;;;;;6157208;23;20002;-89
2022/02/20 20:08:42;;;;;;;125.30;60.03;;;;;;;;;;6154305;23;20076;-87
2022/02/20 20:11:10;;;;;;;65.90;36.38;;;;;;;;;;6156205;23;20017;-86
2022/02/20 20:13:40;;;;;;;55.55;29.52;;;;;;;;;;6154467;23;20001;-88
2022/02/20 20:16:06;;;;;;;55.95;29.23;;;;;;;;;;6154835;23;20329;-87
2022/02/20 20:18:34;;;;;;;50.60;28.80;;;;;;;;;;6154773;23;20010;-87
2022/02/20 20:21:00;;;;;;;53.33;27.85;;;;;;;;;;6154840;23;20068;-89
2022/02/20 20:23:26;;;;;;;52.13;27.45;;;;;;;;;;6154562;23;20373;-87
2022/02/20 20:25:51;;;;;;;48.42;26.40;;;;;;;;;;6154573;23;20020;-88
2022/02/20 20:28:17;;;;;;;55.17;27.10;;;;;;;;;;6156206;23;20406;-87
2022/02/20 20:30:43;;;;;;;50.17;28.05;;;;;;;;;;6155129;23;20005;-89
2022/02/20 20:33:09;;;;;;;53.22;26.80;;;;;;;;;;6156422;23;20009;-88
2022/02/20 20:35:35;;;;;;;51.78;27.83;;;;;;;;;;6157287;23;20002;-89
2022/02/20 20:38:01;;;;;;;50.90;26.55;;;;;;;;;;6157940;23;20432;-88
2022/02/20 20:40:35;;;;;;;52.92;27.08;;;;;;;;;;6158026;23;20056;-88
2022/02/20 20:43:02;;;;;;;53.17;27.88;;;;;;;;;;6160588;23;20001;-88
2022/02/20 20:45:28;;;;;;;55.17;27.70;;;;;;;;;;6156918;23;20001;-88
2022/02/20 20:47:54;;;;;;;52.22;29.13;;;;;;;;;;6157057;23;20005;-88
2022/02/20 20:50:24;;;;;;;57.55;28.65;;;;;;;;;;6157447;23;20036;-88
2022/02/20 20:52:51;;;;;;;54.88;27.58;;;;;;;;;;6158788;23;20033;-87
2022/02/20 20:55:20;;;;;;;54.13;27.25;;;;;;;;;;6157294;23;20016;-88
2022/02/20 20:57:46;;;;;;;56.33;28.85;;;;;;;;;;6157571;23;20009;-89
2022/02/20 21:00:13;;;;;;;57.92;30.65;;;;;;;;;;6157312;23;20016;-89
2022/02/20 21:02:39;;;;;;;59.33;31.67;;;;;;;;;;6157501;23;20010;-90
2022/02/20 21:05:06;;;;;;;63.83;33.75;;;;;;;;;;6158831;23;19997;-89
2022/02/20 21:07:32;;;;;;;59.53;30.25;;;;;;;;;;6158802;23;20017;-89
2022/02/20 21:09:58;;;;;;;54.03;28.92;;;;;;;;;;6159037;23;20006;-89
2022/02/20 21:12:26;;;;;;;54.20;28.08;;;;;;;;;;6157454;23;20005;-89
2022/02/20 21:14:52;;;;;;;56.58;29.73;;;;;;;;;;6158759;23;20040;-89
2022/02/20 21:17:21;;;;;;;59.75;31.73;;;;;;;;;;6159098;23;20005;-89
2022/02/20 21:19:47;;;;;;;61.20;30.60;;;;;;;;;;6157359;23;20036;-88
2022/02/20 21:22:12;;;;;;;58.03;31.05;;;;;;;;;;6156950;23;20092;-88
2022/02/20 21:24:38;;;;;;;63.78;32.78;;;;;;;;;;6157500;23;20005;-88
2022/02/20 21:27:04;;;;;;;64.38;33.25;;;;;;;;;;6157188;23;20006;-88
2022/02/20 21:29:30;;;;;;;65.13;33.63;;;;;;;;;;6157231;23;20437;-88
2022/02/20 21:31:55;;;;;;;66.03;32.60;;;;;;;;;;6157018;23;20033;-88
2022/02/20 21:34:21;;;;;;;66.28;33.10;;;;;;;;;;6156643;23;20302;-88
2022/02/20 21:36:47;;;;;;;62.05;32.78;;;;;;;;;;6156899;23;20088;-88
2022/02/20 21:39:13;;;;;;;64.43;34.58;;;;;;;;;;6156621;23;20009;-88
2022/02/20 21:41:38;;;;;;;65.53;33.60;;;;;;;;;;6156532;23;20009;-89
2022/02/20 21:44:04;;;;;;;62.55;32.53;;;;;;;;;;6158417;23;20012;-88
2022/02/20 21:46:30;;;;;;;62.15;33.10;;;;;;;;;;6156746;23;20005;-88
2022/02/20 21:48:55;;;;;;;60.90;32.70;;;;;;;;;;6157744;23;20025;-87
2022/02/20 21:51:22;;;;;;;66.57;33.40;;;;;;;;;;6156917;23;20013;-88
2022/02/20 21:53:48;;;;;;;68.88;33.28;;;;;;;;;;6157124;23;20009;-88
2022/02/20 21:56:14;;;;;;;63.67;32.67;;;;;;;;;;6156501;23;20010;-88
2022/02/20 21:58:40;;;;;;;63.33;33.30;;;;;;;;;;6156649;23;20328;-88
2022/02/20 22:01:06;;;;;;;64.05;32.50;;;;;;;;;;6156362;23;20493;-88
2022/02/20 22:03:32;;;;;;;65.13;32.28;;;;;;;;;;6156151;23;20088;-88
2022/02/20 22:05:58;;;;;;;58.53;32.15;;;;;;;;;;6157925;23;20029;-87
2022/02/20 22:08:24;;;;;;;61.67;32.10;;;;;;;;;;6157948;23;20001;-88
2022/02/20 22:10:56;;;;;;;63.80;32.83;;;;;;;;;;6156347;23;20013;-88
2022/02/20 22:13:26;;;;;;;62.17;31.67;;;;;;;;;;6157760;23;20385;-89
2022/02/20 22:15:51;;;;;;;68.53;34.90;;;;;;;;;;6156203;23;20089;-88
2022/02/20 22:18:17;;;;;;;74.03;35.88;;;;;;;;;;6156272;23;20045;-90
2022/02/20 22:20:43;;;;;;;61.88;31.65;;;;;;;;;;6157836;23;20005;-88
2022/02/20 22:23:08;;;;;;;61.15;31.90;;;;;;;;;;6157804;23;20005;-89
2022/02/20 22:25:34;;;;;;;62.67;32.75;;;;;;;;;;6157764;23;20068;-87
2022/02/20 22:27:59;;;;;;;61.88;31.48;;;;;;;;;;6157603;23;20426;-88
2022/02/20 22:30:25;;;;;;;68.60;35.20;;;;;;;;;;6156202;23;20557;-88
2022/02/20 22:32:53;;;;;;;65.05;33.40;;;;;;;;;;6157863;23;20381;-88
2022/02/20 22:35:19;;;;;;;66.07;33.75;;;;;;;;;;6156486;23;20436;-87
2022/02/20 22:37:44;;;;;;;69.82;32.92;;;;;;;;;;6158048;23;19997;-87
2022/02/20 22:40:11;;;;;;;59.10;32.72;;;;;;;;;;6157713;23;20002;-88
2022/02/20 22:42:38;;;;;;;62.83;33.25;;;;;;;;;;6158261;23;19998;-87
2022/02/20 22:45:04;;;;;;;62.13;32.80;;;;;;;;;;6157904;23;20005;-87
2022/02/20 22:47:29;;;;;;;64.93;34.45;;;;;;;;;;6156948;23;20473;-88
2022/02/20 22:49:55;;;;;;;60.83;31.80;;;;;;;;;;6157530;23;20335;-90
